Pagrindinis puslapis
METAR-TAF:

METAR-TAF

Oro uostai :

Vanas, Turkija

platuma: 38-27N, ilguma: 043-19E, Aukštis: 1667 m

Dabartinis oras

Ataskaita buvo paskelbta 32 minutes, ne 02:50 UTC
Vėjas 2 kt iš Pietryčių
Temperatūra 9°C
Drėgmė 76%
Slėgis 1023 hPa
Matomumas 10 km arba daugiau
Mažai debesys ne aukštis 4000 ft

METAR: LTCI 260250Z 13002KT 9999 FEW040 09/05 Q1023 NOSIG

Laikas: 06:22 (03:22 UTC)

Prognozė

Ataskaita buvo paskelbta 1 valandą ir 42 minutes, ne 01:40 UTC
Prognozė galioja nuo 26 metu 03 UTC su 26 metu 12 UTC
Vėjas 2 kt nuo kintamojo kryptimis
Matomumas 10 km arba daugiau
Mažai debesys ne aukštis 4000 ft
Tapsmas
nuo 26 metu 06 UTC su 26 metu 08 UTC
Vėjas 12 kt iš Vakarų

TAF: LTCI 260140Z 2603/2612 VRB02KT 9999 FEW040 BECMG 2606/2608 28012KT

Orai ataskaitas ir orų prognozės (METAR, TAF).

turimą stotys yra geltonos ir raudonos taškus žemėlapyje.

Perkelti pele per norėdami pamatyti stoties vardą.

Tada spustelėkite, norėdami matyti oro stebėjimo ir prognozės.

Norėdami pakeisti žemėlapį: spustelėkite ant žalios mygtukų su juodo kryžiaus žemyn,; žalią mygtuką su brūkšneliu, jei norite nutolinti; arba žalių rodyklių gretimoms žemėlapius.


METAR-TAF: